Time;durP1;ratioP1;P1;durP2;ratioP2;P2;SDS_P1;SDS_P2;PMS_P1;PMS_P2;Temp;Humidity;BMP_temperature;BMP_pressure;BME280_temperature;BME280_humidity;BME280_pressure;Samples;Min_cycle;Max_cycle;Signal;HPM_P1;HPM_P2
2022/11/01 00:00:31;;;;;;;20.75;14.30;;;13.30;99.90;;;;;;7370797;19;20030;-57
2022/11/01 00:02:57;;;;;;;19.90;13.20;;;13.30;99.90;;;;;;7369865;19;20422;-57
2022/11/01 00:05:23;;;;;;;18.27;13.10;;;13.30;99.90;;;;;;7372338;19;20030;-57
2022/11/01 00:07:52;;;;;;;18.70;12.70;;;13.30;99.90;;;;;;7223211;19;2811470;-57
2022/11/01 00:10:18;;;;;;;19.65;12.40;;;13.30;99.90;;;;;;7374210;19;20014;-57
2022/11/01 00:12:45;;;;;;;24.92;14.60;;;13.30;99.90;;;;;;7371634;19;20475;-57
2022/11/01 00:15:12;;;;;;;18.13;12.88;;;13.30;99.90;;;;;;7373282;19;20085;-57
2022/11/01 00:17:38;;;;;;;20.42;12.65;;;13.30;99.90;;;;;;7367882;19;20018;-57
2022/11/01 00:20:04;;;;;;;20.88;13.07;;;13.30;99.90;;;;;;7373339;19;20025;-56
2022/11/01 00:22:31;;;;;;;19.88;13.23;;;13.30;99.90;;;;;;7373545;19;20489;-56
2022/11/01 00:24:57;;;;;;;16.83;13.32;;;13.30;99.90;;;;;;7369838;19;20029;-57
2022/11/01 00:27:23;;;;;;;20.30;12.02;;;13.40;99.90;;;;;;7369129;19;20018;-55
2022/11/01 00:29:49;;;;;;;19.55;12.35;;;13.40;99.90;;;;;;7371269;19;20489;-56
2022/11/01 00:32:16;;;;;;;21.58;13.35;;;13.40;99.90;;;;;;7372134;19;20018;-57
2022/11/01 00:34:42;;;;;;;18.75;12.55;;;13.40;99.90;;;;;;7374266;19;20533;-57
2022/11/01 00:37:08;;;;;;;17.27;12.10;;;13.40;99.90;;;;;;7370524;19;20578;-57
2022/11/01 00:39:34;;;;;;;16.80;11.43;;;13.50;99.90;;;;;;7368509;19;20053;-58
2022/11/01 00:42:00;;;;;;;19.67;12.00;;;13.50;99.90;;;;;;7369112;19;20050;-57
2022/11/01 00:44:27;;;;;;;20.35;11.40;;;13.60;99.90;;;;;;7371812;19;20510;-56
2022/11/01 00:46:53;;;;;;;18.17;12.10;;;13.50;99.90;;;;;;7368212;19;20018;-56
2022/11/01 00:49:20;;;;;;;18.08;10.52;;;13.60;99.90;;;;;;7367273;19;20023;-56
2022/11/01 00:51:46;;;;;;;14.77;10.68;;;13.60;99.90;;;;;;7368968;19;20398;-56
2022/11/01 00:54:12;;;;;;;17.60;11.88;;;13.60;99.90;;;;;;7371543;19;20019;-56
2022/11/01 00:56:38;;;;;;;16.02;9.98;;;13.60;99.90;;;;;;7369660;19;20028;-56
2022/11/01 00:59:04;;;;;;;16.70;11.30;;;13.60;99.90;;;;;;7369383;19;20039;-58
2022/11/01 01:01:31;;;;;;;16.30;10.77;;;13.70;99.90;;;;;;7371699;19;20058;-57
2022/11/01 01:03:57;;;;;;;14.70;10.55;;;13.70;99.90;;;;;;7367716;19;21250;-58
2022/11/01 01:06:23;;;;;;;21.80;11.02;;;13.70;99.90;;;;;;7370236;19;20010;-57
2022/11/01 01:08:49;;;;;;;14.63;10.63;;;13.70;99.90;;;;;;7367804;19;20025;-58
2022/11/01 01:11:16;;;;;;;15.00;10.45;;;13.60;99.90;;;;;;7367817;19;20029;-58
2022/11/01 01:13:42;;;;;;;14.23;10.02;;;13.70;99.90;;;;;;7370234;19;20481;-57
2022/11/01 01:16:10;;;;;;;15.55;9.63;;;13.70;99.90;;;;;;7369256;19;20566;-57
2022/11/01 01:18:37;;;;;;;14.00;9.73;;;13.80;99.90;;;;;;7369812;19;20025;-58
2022/11/01 01:21:04;;;;;;;12.82;9.32;;;13.80;99.90;;;;;;7365931;19;20556;-57
2022/11/01 01:23:31;;;;;;;18.80;10.63;;;13.80;99.90;;;;;;7371887;19;20014;-58
2022/11/01 01:25:57;;;;;;;18.45;9.98;;;13.80;99.90;;;;;;7369099;19;20022;-58
2022/11/01 01:28:23;;;;;;;16.05;10.05;;;13.80;99.90;;;;;;7367697;19;20025;-58
2022/11/01 01:30:49;;;;;;;15.50;10.25;;;13.80;99.90;;;;;;7367781;19;20038;-58
2022/11/01 01:33:15;;;;;;;15.25;10.13;;;13.80;99.90;;;;;;7372570;19;20022;-57
2022/11/01 01:35:41;;;;;;;15.23;9.57;;;13.80;99.90;;;;;;7370935;19;20359;-57
2022/11/01 01:38:09;;;;;;;14.32;10.15;;;13.70;99.90;;;;;;7371878;19;20024;-57
2022/11/01 01:40:35;;;;;;;14.07;8.90;;;13.70;99.90;;;;;;7368540;19;20488;-57
2022/11/01 01:43:01;;;;;;;13.88;9.70;;;13.70;99.90;;;;;;7367891;19;20573;-58
2022/11/01 01:45:32;;;;;;;17.10;9.80;;;13.80;99.90;;;;;;7371418;19;20363;-58
2022/11/01 01:48:08;;;;;;;15.48;9.43;;;13.80;99.90;;;;;;7368738;19;20409;-57
2022/11/01 01:50:58;;;;;;;12.75;8.82;;;13.70;99.90;;;;;;7370227;19;20015;-57
2022/11/01 01:53:27;;;;;;;14.10;9.00;;;13.80;99.90;;;;;;7368468;19;20018;-57
2022/11/01 01:56:04;;;;;;;13.40;9.52;;;13.70;99.90;;;;;;7371778;19;20038;-58
2022/11/01 01:58:36;;;;;;;12.13;8.82;;;13.70;99.90;;;;;;7372330;19;20018;-57
2022/11/01 02:01:02;;;;;;;14.75;9.23;;;13.70;99.90;;;;;;7370790;19;20018;-58
2022/11/01 02:03:34;;;;;;;13.05;8.45;;;13.70;99.90;;;;;;7364996;19;20143;-56
2022/11/01 02:06:08;;;;;;;14.07;8.45;;;13.70;99.90;;;;;;7370963;19;20026;-57
2022/11/01 02:08:35;;;;;;;14.98;9.68;;;13.70;99.90;;;;;;7367273;19;20808;-56
2022/11/01 02:11:04;;;;;;;13.98;8.85;;;13.70;99.90;;;;;;7369954;19;20019;-56
2022/11/01 02:13:31;;;;;;;14.50;8.30;;;13.70;99.90;;;;;;7362257;19;20018;-56
2022/11/01 02:16:03;;;;;;;15.43;8.98;;;13.80;99.90;;;;;;7367505;19;20026;-57
2022/11/01 02:18:43;;;;;;;13.10;9.00;;;13.80;99.90;;;;;;7370046;19;20443;-57
2022/11/01 02:21:34;;;;;;;13.82;7.85;;;13.80;99.90;;;;;;7369199;19;20019;-56
2022/11/01 02:24:08;;;;;;;13.53;8.33;;;13.80;99.90;;;;;;7366048;19;20486;-56
2022/11/01 02:26:46;;;;;;;16.27;8.32;;;13.90;99.90;;;;;;7368345;19;20570;-56
2022/11/01 02:29:26;;;;;;;12.80;8.70;;;13.80;99.90;;;;;;7365556;19;20037;-57
2022/11/01 02:32:18;;;;;;;13.55;8.60;;;13.90;99.90;;;;;;7364583;19;20953;-57
2022/11/01 02:34:58;;;;;;;13.07;7.80;;;13.90;99.90;;;;;;7365046;19;20022;-57
2022/11/01 02:37:31;;;;;;;12.35;7.22;;;13.80;99.90;;;;;;7368706;19;20460;-56
2022/11/01 02:40:14;;;;;;;12.82;7.70;;;13.80;99.90;;;;;;7367264;19;20441;-56
2022/11/01 02:42:47;;;;;;;15.20;8.20;;;13.70;99.90;;;;;;7367673;19;20040;-56
2022/11/01 02:45:32;;;;;;;15.32;8.20;;;13.70;99.90;;;;;;7368424;19;20593;-55
2022/11/01 02:47:59;;;;;;;15.18;8.27;;;13.70;99.90;;;;;;7363089;19;20090;-56
2022/11/01 02:50:30;;;;;;;13.10;7.80;;;13.70;99.90;;;;;;7373525;19;20843;-56
2022/11/01 02:52:58;;;;;;;;;;;13.70;99.90;;;;;;7375119;19;20374;-56
2022/11/01 02:55:28;;;;;;;11.27;7.60;;;13.70;99.90;;;;;;7373006;19;20082;-57
2022/11/01 02:58:00;;;;;;;16.98;8.25;;;13.70;99.90;;;;;;7371784;19;20019;-56
2022/11/01 03:00:29;;;;;;;17.77;8.05;;;13.80;99.90;;;;;;7375785;19;20465;-57
2022/11/01 03:02:59;;;;;;;11.80;7.68;;;13.90;99.90;;;;;;7376560;19;20422;-58
2022/11/01 03:05:52;;;;;;;13.73;8.07;;;13.90;99.90;;;;;;7371227;19;20025;-58
2022/11/01 03:08:24;;;;;;;11.75;7.38;;;14.00;99.90;;;;;;7373203;19;20017;-59
2022/11/01 03:10:53;;;;;;;10.85;7.13;;;14.00;99.90;;;;;;7374745;19;20018;-59
2022/11/01 03:13:39;;;;;;;9.50;6.35;;;14.10;99.90;;;;;;7376182;19;20314;-59
2022/11/01 03:16:18;;;;;;;9.85;6.72;;;14.20;99.90;;;;;;7370408;19;20358;-58
2022/11/01 03:18:52;;;;;;;11.68;5.85;;;14.30;99.90;;;;;;7371742;19;20023;-58
2022/11/01 03:21:23;;;;;;;11.40;5.65;;;14.40;99.90;;;;;;7375785;19;20019;-59
2022/11/01 03:23:55;;;;;;;11.82;6.72;;;14.60;99.90;;;;;;7366574;19;20018;-58
2022/11/01 03:26:27;;;;;;;11.82;5.95;;;14.70;99.90;;;;;;7360160;19;20022;-57
2022/11/01 03:28:58;;;;;;;10.85;6.25;;;14.80;99.90;;;;;;7359043;19;20474;-57
2022/11/01 03:31:30;;;;;;;6.70;5.75;;;14.90;99.90;;;;;;7362840;19;21564;-57
2022/11/01 03:34:05;;;;;;;7.80;5.32;;;14.90;99.90;;;;;;7360477;19;20623;-57
2022/11/01 03:36:37;;;;;;;11.65;5.63;;;14.90;99.90;;;;;;7360295;19;20034;-57
2022/11/01 03:39:17;;;;;;;9.85;5.75;;;14.90;99.90;;;;;;7358820;19;20031;-58
2022/11/01 03:41:47;;;;;;;11.73;5.95;;;14.90;99.90;;;;;;7358373;19;20968;-58
2022/11/01 03:44:13;;;;;;;11.38;6.07;;;14.90;99.90;;;;;;7359630;19;20486;-57
2022/11/01 03:46:41;;;;;;;16.27;6.25;;;14.90;99.90;;;;;;7358774;19;20495;-58
2022/11/01 03:49:07;;;;;;;12.05;6.10;;;14.80;99.90;;;;;;7354719;19;20543;-57
2022/11/01 03:51:33;;;;;;;12.50;5.95;;;14.80;99.90;;;;;;7358411;19;20121;-57
2022/11/01 03:54:00;;;;;;;9.55;5.93;;;14.80;99.90;;;;;;7358519;19;20036;-57
2022/11/01 03:56:26;;;;;;;11.88;5.80;;;14.70;99.90;;;;;;7357790;19;20026;-57
2022/11/01 03:58:53;;;;;;;8.63;5.75;;;14.80;99.90;;;;;;7359476;19;20561;-57
2022/11/01 04:01:19;;;;;;;11.00;6.20;;;14.80;99.90;;;;;;7356804;19;20048;-57
2022/11/01 04:03:45;;;;;;;8.98;5.63;;;14.80;99.90;;;;;;7355905;19;20120;-57
2022/11/01 04:06:11;;;;;;;9.65;5.90;;;14.80;99.90;;;;;;7356359;19;20022;-57
2022/11/01 04:08:39;;;;;;;8.35;5.93;;;14.80;99.90;;;;;;7357397;19;20015;-58
2022/11/01 04:11:05;;;;;;;9.27;5.78;;;14.80;99.90;;;;;;7356200;19;20468;-58
2022/11/01 04:13:31;;;;;;;11.65;6.13;;;14.80;99.90;;;;;;7354427;19;20522;-57
2022/11/01 04:20:31;;;;;;;11.25;5.40;;;14.90;99.90;;;;;;7358217;19;20033;-57
2022/11/01 04:21:39;;;;;;;9.48;5.13;;;14.80;99.90;;;;;;7360523;19;20354;-57
2022/11/01 04:24:06;;;;;;;9.25;5.88;;;14.90;99.90;;;;;;7358876;19;20035;-58
2022/11/01 04:26:32;;;;;;;11.10;6.35;;;14.90;99.90;;;;;;7358812;19;20020;-58
2022/11/01 04:28:58;;;;;;;8.93;5.53;;;14.90;99.90;;;;;;7353804;19;20426;-59
2022/11/01 04:31:33;;;;;;;8.63;5.50;;;14.90;99.90;;;;;;7358813;19;20930;-57
2022/11/01 04:34:01;;;;;;;13.00;6.55;;;14.90;99.90;;;;;;7355673;19;20462;-56
2022/11/01 04:36:27;;;;;;;10.30;5.50;;;15.00;99.90;;;;;;7357980;19;20021;-59
2022/11/01 04:38:55;;;;;;;8.10;5.32;;;15.10;99.90;;;;;;7358271;19;20649;-59
2022/11/01 04:41:24;;;;;;;8.98;5.40;;;15.10;99.90;;;;;;7360268;19;20014;-58
2022/11/01 04:43:52;;;;;;;10.50;5.50;;;15.20;99.90;;;;;;7357643;19;20031;-58
2022/11/01 04:46:19;;;;;;;12.65;6.13;;;15.30;99.90;;;;;;7356719;19;20019;-58
2022/11/01 04:48:45;;;;;;;11.38;5.55;;;15.20;99.90;;;;;;7356905;19;20015;-59
2022/11/01 04:51:11;;;;;;;7.85;4.55;;;15.30;99.90;;;;;;7353003;19;20024;-59
2022/11/01 04:53:38;;;;;;;8.18;4.68;;;15.20;99.90;;;;;;7358144;19;20603;-59
2022/11/01 04:56:07;;;;;;;9.95;4.90;;;15.20;99.90;;;;;;7354429;19;20023;-60
2022/11/01 04:58:35;;;;;;;9.45;4.68;;;15.30;99.90;;;;;;7359220;19;20046;-58
2022/11/01 05:01:05;;;;;;;10.90;5.47;;;15.30;99.90;;;;;;7357059;19;20052;-59
2022/11/01 05:03:32;;;;;;;12.35;6.05;;;15.30;99.90;;;;;;7358244;19;20478;-59
2022/11/01 05:05:59;;;;;;;7.93;5.28;;;15.40;99.90;;;;;;7354199;19;20746;-59
2022/11/01 05:08:26;;;;;;;8.80;5.10;;;15.40;99.90;;;;;;7357271;19;20022;-58
2022/11/01 05:10:54;;;;;;;8.35;5.35;;;15.40;99.90;;;;;;7357749;19;20030;-59
2022/11/01 05:13:21;;;;;;;9.55;4.30;;;15.30;99.90;;;;;;7358996;19;20022;-58
2022/11/01 05:15:47;;;;;;;9.50;4.80;;;15.40;99.90;;;;;;7352234;19;21417;-57
2022/11/01 05:18:13;;;;;;;9.45;4.65;;;15.50;99.90;;;;;;7355745;19;20346;-58
2022/11/01 05:20:42;;;;;;;8.98;4.65;;;15.50;99.90;;;;;;7357981;19;20472;-57
2022/11/01 05:23:09;;;;;;;7.13;4.43;;;15.40;99.90;;;;;;7357590;19;20018;-59
2022/11/01 05:25:35;;;;;;;7.55;4.35;;;15.30;99.90;;;;;;7356871;19;20034;-58
2022/11/01 05:28:05;;;;;;;10.95;5.60;;;15.30;99.90;;;;;;7360052;19;20019;-59
2022/11/01 05:30:36;;;;;;;7.20;4.78;;;15.30;99.90;;;;;;7356180;19;20052;-60
2022/11/01 05:33:04;;;;;;;9.18;5.15;;;15.30;99.90;;;;;;7354521;19;20039;-59
2022/11/01 05:35:33;;;;;;;7.50;4.55;;;15.30;99.90;;;;;;7358731;19;20597;-58
2022/11/01 05:38:00;;;;;;;9.00;4.80;;;15.40;99.90;;;;;;7350042;19;20054;-58
2022/11/01 05:40:26;;;;;;;8.25;4.60;;;15.50;99.90;;;;;;7353554;19;20018;-59
2022/11/01 05:42:53;;;;;;;9.98;4.60;;;15.50;99.90;;;;;;7351850;19;20026;-59
2022/11/01 05:45:19;;;;;;;6.57;4.68;;;15.50;99.90;;;;;;7350069;19;20157;-58
2022/11/01 05:47:46;;;;;;;6.88;4.80;;;15.60;99.90;;;;;;7350808;19;20502;-59
2022/11/01 05:50:15;;;;;;;9.68;4.28;;;15.60;99.90;;;;;;7351402;19;20042;-59
2022/11/01 05:52:42;;;;;;;8.70;3.45;;;15.70;99.90;;;;;;7355976;19;20487;-58
2022/11/01 05:55:09;;;;;;;7.93;3.33;;;15.70;99.90;;;;;;7352838;19;20015;-57
2022/11/01 05:57:36;;;;;;;4.70;2.10;;;15.70;99.90;;;;;;7365121;19;20030;-57
2022/11/01 06:00:05;;;;;;;8.95;2.00;;;15.60;99.90;;;;;;7369178;19;20023;-58
2022/11/01 06:02:39;;;;;;;3.70;1.30;;;15.50;99.90;;;;;;7366760;19;20038;-58
2022/11/01 06:05:05;;;;;;;2.10;0.80;;;15.40;99.90;;;;;;7369171;19;20039;-58
2022/11/01 06:07:34;;;;;;;3.15;0.90;;;15.30;99.90;;;;;;7368493;19;20014;-59
2022/11/01 06:10:00;;;;;;;3.60;1.02;;;15.20;99.90;;;;;;7367955;19;20975;-59
2022/11/01 06:12:27;;;;;;;4.72;1.25;;;15.10;99.90;;;;;;7368460;19;20479;-59
2022/11/01 06:14:55;;;;;;;3.95;1.02;;;15.10;99.90;;;;;;7368950;19;20018;-58
2022/11/01 06:17:22;;;;;;;3.63;1.17;;;15.00;99.90;;;;;;7369373;19;20130;-57
2022/11/01 06:19:48;;;;;;;4.43;0.98;;;14.90;99.90;;;;;;7365760;19;20518;-57
2022/11/01 06:22:14;;;;;;;3.33;1.30;;;14.80;99.90;;;;;;7362652;19;21128;-57
2022/11/01 06:24:40;;;;;;;3.63;1.27;;;14.60;99.90;;;;;;7365381;19;20022;-58
2022/11/01 06:27:07;;;;;;;4.03;1.35;;;14.70;99.90;;;;;;7367118;19;20042;-57
2022/11/01 06:29:33;;;;;;;4.82;1.10;;;14.60;99.90;;;;;;7368681;19;20516;-58
2022/11/01 06:32:03;;;;;;;3.35;1.13;;;14.60;99.90;;;;;;7373977;19;20025;-58
2022/11/01 06:34:29;;;;;;;3.00;1.05;;;14.60;99.90;;;;;;7374996;19;20843;-58
2022/11/01 06:36:56;;;;;;;6.25;1.70;;;14.60;99.90;;;;;;7370609;19;20050;-58
2022/11/01 06:39:22;;;;;;;2.20;1.00;;;14.50;99.90;;;;;;7372796;19;20501;-58
2022/11/01 06:41:50;;;;;;;4.82;1.38;;;14.50;99.90;;;;;;7372280;19;20021;-58
2022/11/01 06:44:16;;;;;;;5.03;2.00;;;14.40;99.90;;;;;;7372306;19;20010;-57
2022/11/01 06:46:42;;;;;;;3.83;1.38;;;14.40;99.90;;;;;;7357832;19;21248;-58
2022/11/01 06:49:08;;;;;;;6.40;1.73;;;14.20;99.90;;;;;;7352830;19;20023;-58
2022/11/01 06:51:35;;;;;;;6.85;1.80;;;14.20;99.90;;;;;;7355037;19;20036;-58
2022/11/01 06:54:01;;;;;;;2.90;1.40;;;14.30;99.90;;;;;;7353283;19;20010;-58
2022/11/01 06:56:28;;;;;;;2.85;1.02;;;14.20;99.90;;;;;;7355770;19;20033;-58
2022/11/01 06:58:59;;;;;;;5.13;1.05;;;14.10;99.90;;;;;;7357753;19;20486;-58
2022/11/01 07:01:25;;;;;;;4.35;1.23;;;14.10;99.90;;;;;;7355684;19;20074;-57
2022/11/01 07:03:51;;;;;;;5.25;1.00;;;14.10;99.90;;;;;;7356917;19;20498;-58
2022/11/01 07:06:20;;;;;;;4.72;1.80;;;14.10;99.90;;;;;;7354796;19;20022;-58
2022/11/01 07:08:47;;;;;;;3.97;0.90;;;14.00;99.90;;;;;;7354244;19;20011;-58
2022/11/01 07:11:13;;;;;;;6.22;1.20;;;14.00;99.90;;;;;;7357905;19;20854;-58
2022/11/01 07:13:40;;;;;;;4.82;1.20;;;14.00;99.90;;;;;;7356646;19;20358;-60
2022/11/01 07:16:06;;;;;;;2.95;1.10;;;13.90;99.90;;;;;;7356339;19;20010;-57
2022/11/01 07:18:33;;;;;;;4.53;1.45;;;13.90;99.90;;;;;;7355839;19;20038;-57
2022/11/01 07:21:03;;;;;;;5.00;0.85;;;13.80;99.90;;;;;;7354949;19;20014;-57
2022/11/01 07:23:30;;;;;;;2.72;0.90;;;13.70;99.90;;;;;;7354606;19;20606;-59
2022/11/01 07:25:57;;;;;;;5.53;1.15;;;13.70;99.90;;;;;;7358045;19;20048;-59
2022/11/01 07:28:23;;;;;;;6.35;1.42;;;13.60;99.90;;;;;;7354383;19;20386;-58
2022/11/01 07:30:52;;;;;;;5.38;2.55;;;13.60;99.90;;;;;;7353684;19;20048;-57
2022/11/01 07:33:19;;;;;;;3.70;0.93;;;13.70;99.90;;;;;;7353470;19;20014;-58
2022/11/01 07:35:47;;;;;;;6.38;1.75;;;13.80;99.90;;;;;;7352066;19;20452;-58
2022/11/01 07:38:18;;;;;;;4.47;1.00;;;13.80;99.90;;;;;;7354116;19;20385;-58
2022/11/01 07:40:48;;;;;;;4.05;1.10;;;14.00;99.90;;;;;;7351626;19;20498;-58
2022/11/01 07:43:16;;;;;;;4.30;1.13;;;14.10;99.90;;;;;;7358853;19;20633;-58
2022/11/01 07:45:43;;;;;;;5.20;1.20;;;14.20;99.90;;;;;;7356574;19;20425;-58
2022/11/01 07:48:13;;;;;;;5.43;1.50;;;14.40;99.90;;;;;;7357744;19;20015;-58
2022/11/01 07:50:40;;;;;;;7.00;1.65;;;14.40;99.90;;;;;;7350914;19;20032;-58
2022/11/01 07:53:13;;;;;;;5.65;1.20;;;14.40;99.90;;;;;;7352170;19;20018;-58
2022/11/01 07:55:40;;;;;;;9.60;2.45;;;14.40;99.90;;;;;;7351958;19;20015;-60
2022/11/01 07:58:07;;;;;;;6.97;1.65;;;14.40;99.90;;;;;;7353436;19;20015;-60
2022/11/01 08:00:35;;;;;;;6.28;1.30;;;14.40;99.90;;;;;;7358199;19;20562;-59
2022/11/01 08:03:18;;;;;;;4.63;1.15;;;14.40;99.90;;;;;;7354255;19;20382;-56
2022/11/01 08:05:46;;;;;;;6.07;1.42;;;14.40;99.90;;;;;;7355474;19;20047;-58
2022/11/01 08:08:14;;;;;;;9.60;2.25;;;14.40;99.90;;;;;;7350321;19;20018;-59
2022/11/01 08:10:41;;;;;;;7.95;1.50;;;14.50;99.90;;;;;;7356524;19;20018;-57
2022/11/01 08:13:15;;;;;;;8.85;2.10;;;14.50;99.90;;;;;;7353075;19;20085;-58
2022/11/01 08:15:42;;;;;;;5.63;1.23;;;14.80;99.90;;;;;;7357592;19;20044;-58
2022/11/01 08:18:08;;;;;;;8.57;1.67;;;15.30;99.90;;;;;;7352457;19;20059;-58
2022/11/01 08:20:35;;;;;;;8.98;1.92;;;15.90;99.90;;;;;;7352367;19;20022;-58
2022/11/01 08:23:02;;;;;;;10.40;2.03;;;16.20;99.90;;;;;;7350323;19;20037;-57
2022/11/01 08:25:29;;;;;;;10.27;2.15;;;16.50;99.90;;;;;;7353864;19;20022;-58
2022/11/01 08:28:01;;;;;;;12.35;1.88;;;16.80;99.90;;;;;;7352222;19;20014;-57
2022/11/01 08:30:27;;;;;;;8.80;1.95;;;16.80;99.90;;;;;;7354826;19;20018;-58
2022/11/01 08:33:00;;;;;;;8.20;1.80;;;16.50;99.90;;;;;;7352556;19;20125;-58
2022/11/01 08:35:28;;;;;;;7.88;1.65;;;16.20;99.90;;;;;;7354339;19;20747;-57
2022/11/01 08:37:55;;;;;;;7.43;1.88;;;15.80;99.90;;;;;;7356529;19;20046;-58
2022/11/01 08:40:22;;;;;;;12.77;2.60;;;15.90;99.90;;;;;;7356511;19;20010;-58
2022/11/01 08:42:48;;;;;;;8.80;2.17;;;15.90;99.90;;;;;;7352211;19;20361;-58
2022/11/01 08:45:15;;;;;;;12.95;2.47;;;15.90;99.90;;;;;;7350118;19;20554;-59
2022/11/01 08:47:42;;;;;;;10.70;2.30;;;16.40;99.90;;;;;;7351158;19;20426;-57
2022/11/01 08:50:10;;;;;;;9.75;2.50;;;16.70;99.90;;;;;;7350378;19;20596;-57
2022/11/01 08:52:38;;;;;;;11.15;2.67;;;17.00;99.90;;;;;;7356528;19;20433;-56
2022/11/01 08:55:06;;;;;;;10.90;1.95;;;17.00;99.90;;;;;;7350450;19;20486;-56
2022/11/01 08:57:33;;;;;;;10.30;2.58;;;17.20;99.90;;;;;;7356708;19;20015;-57
2022/11/01 08:59:59;;;;;;;8.13;2.05;;;17.20;99.90;;;;;;7352779;19;20025;-58
2022/11/01 09:02:26;;;;;;;10.85;1.98;;;17.40;99.90;;;;;;7356217;19;20508;-57
2022/11/01 09:04:52;;;;;;;10.05;2.00;;;17.30;99.90;;;;;;7346862;19;21153;-57
2022/11/01 09:07:19;;;;;;;12.48;2.63;;;17.60;99.90;;;;;;7354299;19;20022;-57
2022/11/01 09:09:45;;;;;;;8.93;1.83;;;17.60;99.90;;;;;;7349211;19;20018;-57
2022/11/01 09:12:11;;;;;;;12.90;5.38;;;17.90;99.90;;;;;;7358356;19;20515;-58
2022/11/01 09:14:38;;;;;;;13.82;4.82;;;18.20;99.90;;;;;;7366473;19;20155;-52
2022/11/01 09:17:04;;;;;;;14.07;3.67;;;18.10;99.90;;;;;;7364897;19;20043;-53
2022/11/01 09:19:30;;;;;;;10.25;1.80;;;18.00;99.90;;;;;;7365166;19;20465;-53
2022/11/01 09:21:59;;;;;;;13.93;2.47;;;18.10;99.90;;;;;;7366784;19;20021;-53
2022/11/01 09:24:25;;;;;;;12.32;1.95;;;18.30;99.90;;;;;;7363651;19;20022;-51
2022/11/01 09:26:51;;;;;;;9.60;2.65;;;18.10;99.90;;;;;;7364790;19;20029;-52
2022/11/01 09:29:19;;;;;;;12.93;3.90;;;18.00;99.90;;;;;;7365714;19;20023;-53
2022/11/01 09:31:50;;;;;;;9.35;2.17;;;17.80;99.90;;;;;;7365109;19;20050;-58
2022/11/01 09:34:16;;;;;;;9.18;2.50;;;18.00;99.90;;;;;;7363187;19;20022;-57
2022/11/01 09:36:46;;;;;;;12.20;2.78;;;18.00;99.90;;;;;;7365384;19;20109;-58
2022/11/01 09:39:15;;;;;;;10.13;3.13;;;18.20;99.90;;;;;;7368541;19;20371;-58
2022/11/01 09:41:52;;;;;;;9.38;1.95;;;18.70;99.90;;;;;;7366492;19;21098;-58
2022/11/01 09:44:26;;;;;;;9.65;2.10;;;19.00;99.90;;;;;;7364869;19;20837;-58
2022/11/01 09:46:57;;;;;;;7.57;1.90;;;18.70;99.90;;;;;;7367927;19;20564;-58
2022/11/01 09:49:30;;;;;;;9.10;1.98;;;19.10;99.90;;;;;;7366022;19;20018;-58
2022/11/01 09:51:57;;;;;;;11.32;2.75;;;19.10;99.90;;;;;;7366929;19;20014;-58
2022/11/01 09:54:25;;;;;;;9.18;2.40;;;19.40;99.90;;;;;;7366685;19;20097;-58
2022/11/01 09:57:02;;;;;;;12.55;2.30;;;19.10;99.90;;;;;;7370026;19;20022;-57
2022/11/01 09:59:59;;;;;;;8.52;2.28;;;19.10;99.90;;;;;;7374184;19;20563;-57
2022/11/01 10:02:29;;;;;;;9.32;2.10;;;19.40;99.90;;;;;;7372522;19;20022;-58
2022/11/01 10:05:33;;;;;;;11.27;2.75;;;19.30;99.90;;;;;;7373259;19;20018;-57
2022/11/01 10:08:07;;;;;;;8.07;2.08;;;19.00;99.90;;;;;;7371832;19;20018;-58
2022/11/01 10:11:03;;;;;;;10.35;2.20;;;18.10;99.90;;;;;;7370440;19;20031;-58
2022/11/01 10:13:48;;;;;;;13.75;2.20;;;17.40;99.90;;;;;;7371831;19;20372;-57
2022/11/01 10:16:35;;;;;;;6.38;1.55;;;17.10;99.90;;;;;;7371391;19;20019;-57
2022/11/01 10:19:04;;;;;;;16.13;2.90;;;17.20;99.90;;;;;;7368069;19;20598;-57
2022/11/01 10:21:41;;;;;;;11.05;2.15;;;17.70;99.90;;;;;;7374520;19;20111;-57
2022/11/01 10:24:18;;;;;;;12.45;2.47;;;17.60;99.90;;;;;;7372706;19;20015;-57
2022/11/01 10:26:49;;;;;;;10.68;1.98;;;17.30;99.90;;;;;;7371906;19;20117;-57
2022/11/01 10:29:41;;;;;;;10.98;2.40;;;17.90;99.90;;;;;;7366069;19;20055;-57
2022/11/01 10:32:31;;;;;;;12.40;2.58;;;18.60;99.90;;;;;;7371350;19;20041;-56
2022/11/01 10:35:13;;;;;;;11.55;2.35;;;18.80;99.90;;;;;;7370356;19;20128;-57
2022/11/01 10:37:57;;;;;;;11.63;2.15;;;19.10;99.90;;;;;;7367725;19;20018;-57
2022/11/01 10:40:28;;;;;;;6.85;2.20;;;19.20;99.90;;;;;;7371719;19;20665;-58
2022/11/01 10:42:54;;;;;;;9.40;2.28;;;18.80;99.90;;;;;;7371207;19;20029;-57
2022/11/01 10:45:22;;;;;;;9.27;2.33;;;18.80;99.90;;;;;;7369288;19;20098;-58
2022/11/01 10:47:55;;;;;;;11.00;2.03;;;18.40;99.90;;;;;;7369627;19;20891;-57
2022/11/01 10:50:24;;;;;;;10.98;2.63;;;18.00;99.90;;;;;;7368103;19;20755;-56
2022/11/01 10:52:51;;;;;;;8.32;2.40;;;18.10;99.90;;;;;;7373887;19;20014;-57
2022/11/01 10:55:34;;;;;;;14.02;2.75;;;18.00;99.90;;;;;;7370145;19;20078;-56
2022/11/01 10:58:10;;;;;;;13.27;2.40;;;18.30;99.90;;;;;;7367982;19;20526;-57
2022/11/01 11:00:40;;;;;;;14.98;2.90;;;17.90;99.90;;;;;;7374667;19;20017;-57
2022/11/01 11:03:19;;;;;;;11.32;2.28;;;17.30;99.90;;;;;;7370699;19;20026;-57
2022/11/01 11:05:47;;;;;;;14.38;3.00;;;17.10;99.90;;;;;;7369406;19;20018;-57
2022/11/01 11:08:20;;;;;;;10.82;2.78;;;16.90;99.90;;;;;;7367363;19;20010;-56
2022/11/01 11:10:47;;;;;;;12.45;2.20;;;16.70;99.90;;;;;;7374454;19;20015;-57
2022/11/01 11:13:25;;;;;;;16.70;2.60;;;16.70;99.90;;;;;;7371339;19;20461;-58
2022/11/01 11:16:02;;;;;;;10.32;2.50;;;16.80;99.90;;;;;;7373890;19;20028;-59
2022/11/01 11:18:38;;;;;;;12.07;2.25;;;17.70;99.90;;;;;;7370865;19;20102;-58
2022/11/01 11:21:07;;;;;;;10.38;2.55;;;18.70;99.90;;;;;;7369615;19;20039;-58
2022/11/01 11:23:40;;;;;;;10.55;2.22;;;19.10;99.90;;;;;;7368580;19;20098;-58
2022/11/01 11:26:15;;;;;;;10.30;2.20;;;19.40;99.90;;;;;;7370580;19;20022;-59
2022/11/01 11:28:48;;;;;;;9.27;2.50;;;19.80;99.90;;;;;;7372465;19;20479;-57
2022/11/01 11:31:24;;;;;;;12.00;2.55;;;20.10;99.90;;;;;;7371502;19;20090;-56
2022/11/01 11:33:55;;;;;;;9.55;2.33;;;20.50;99.90;;;;;;7371589;19;20022;-56
2022/11/01 11:36:34;;;;;;;9.68;2.13;;;20.20;99.90;;;;;;7370182;19;20021;-56
2022/11/01 11:39:01;;;;;;;10.52;2.60;;;19.30;99.90;;;;;;7368544;19;20395;-58
2022/11/01 11:41:38;;;;;;;8.55;2.58;;;18.70;99.90;;;;;;7373826;19;20014;-58
2022/11/01 11:44:33;;;;;;;13.80;2.35;;;18.90;99.90;;;;;;7371827;19;20465;-56
2022/11/01 11:47:01;;;;;;;8.70;2.10;;;19.00;99.90;;;;;;7371929;19;20081;-56
2022/11/01 11:49:28;;;;;;;10.27;2.70;;;19.30;99.90;;;;;;7365340;19;20050;-57
2022/11/01 11:51:55;;;;;;;8.68;2.35;;;19.80;99.90;;;;;;7370376;19;20577;-56
2022/11/01 11:54:30;;;;;;;13.30;2.20;;;19.80;99.90;;;;;;7368496;19;20014;-57
2022/11/01 11:57:21;;;;;;;13.23;2.42;;;20.40;99.90;;;;;;7371859;19;20022;-59
2022/11/01 12:00:04;;;;;;;10.73;2.05;;;20.60;99.90;;;;;;7366545;19;20022;-58
2022/11/01 12:02:40;;;;;;;11.32;2.72;;;20.40;99.90;;;;;;7370366;19;20035;-59
2022/11/01 12:05:15;;;;;;;10.80;1.98;;;20.30;99.90;;;;;;7362968;19;20437;-59
2022/11/01 12:07:48;;;;;;;11.07;2.20;;;20.60;99.90;;;;;;7365836;19;20028;-59
2022/11/01 12:10:37;;;;;;;9.55;2.10;;;20.70;99.90;;;;;;7365333;19;20613;-59
2022/11/01 12:13:29;;;;;;;12.68;2.63;;;20.80;99.90;;;;;;7367533;19;20031;-61
2022/11/01 12:16:09;;;;;;;13.43;2.58;;;21.00;99.90;;;;;;7367079;19;20052;-61
2022/11/01 12:18:48;;;;;;;9.43;2.03;;;20.90;99.90;;;;;;7371182;19;20037;-61
2022/11/01 12:21:32;;;;;;;11.27;2.35;;;21.10;99.90;;;;;;7367894;19;20111;-61
2022/11/01 12:24:25;;;;;;;8.23;2.30;;;21.30;99.90;;;;;;7372814;19;20011;-61
2022/11/01 12:26:56;;;;;;;8.52;2.17;;;21.60;99.90;;;;;;7371764;19;20382;-61
2022/11/01 12:29:36;;;;;;;6.13;1.63;;;21.50;99.90;;;;;;7370829;19;20416;-61
2022/11/01 12:32:10;;;;;;;10.70;2.63;;;21.70;99.90;;;;;;7371435;19;20036;-61
2022/11/01 12:34:45;;;;;;;6.95;1.85;;;21.40;99.90;;;;;;7371280;19;20142;-60
2022/11/01 12:37:15;;;;;;;8.38;1.80;;;22.00;99.90;;;;;;7370298;19;20017;-60
2022/11/01 12:40:12;;;;;;;11.52;2.35;;;22.20;99.10;;;;;;7369914;19;20468;-62
2022/11/01 12:42:53;;;;;;;9.25;1.67;;;22.00;98.60;;;;;;7367497;19;20059;-60
2022/11/01 12:45:23;;;;;;;8.85;1.88;;;22.00;99.30;;;;;;7368428;19;20105;-61
2022/11/01 12:48:07;;;;;;;7.57;2.42;;;21.90;98.00;;;;;;7370393;19;20022;-61
2022/11/01 12:51:07;;;;;;;10.93;2.08;;;21.90;98.10;;;;;;7366321;19;20029;-61
2022/11/01 12:53:45;;;;;;;6.60;1.83;;;22.10;98.10;;;;;;7365655;19;20015;-60
2022/11/01 12:56:12;;;;;;;7.78;1.90;;;21.90;98.50;;;;;;7362683;19;20120;-61
2022/11/01 12:58:38;;;;;;;10.15;2.03;;;21.90;98.20;;;;;;7366315;19;20501;-61
2022/11/01 13:01:31;;;;;;;7.47;1.40;;;21.90;98.10;;;;;;7368568;19;20581;-61